createdAt,value
2022-10-17T00:00:53.576Z,96.88
2022-10-17T00:03:21.068Z,96.92
2022-10-17T00:05:49.541Z,97.23
2022-10-17T00:08:19.468Z,97.21
2022-10-17T00:10:47.515Z,97.38
2022-10-17T00:13:15.054Z,97.71
2022-10-17T00:15:44.333Z,97.64
2022-10-17T00:18:11.810Z,97.96
2022-10-17T00:20:39.281Z,98.19
2022-10-17T00:23:06.789Z,98.15
2022-10-17T00:25:36.421Z,97.57
2022-10-17T00:28:04.011Z,97.81
2022-10-17T00:30:32.743Z,97.24
2022-10-17T00:33:00.202Z,97.32
2022-10-17T00:35:27.754Z,97.16
2022-10-17T00:37:55.244Z,97.15
2022-10-17T00:40:22.932Z,96.88
2022-10-17T00:42:53.096Z,96.96
2022-10-17T00:45:23.711Z,97.30
2022-10-17T00:47:54.986Z,96.84
2022-10-17T00:50:23.028Z,97.40
2022-10-17T00:52:50.531Z,97.42
2022-10-17T00:55:21.576Z,97.55
2022-10-17T00:57:49.375Z,97.76
2022-10-17T01:00:19.292Z,97.73
2022-10-17T01:02:47.142Z,97.61
2022-10-17T01:05:15.783Z,97.65
2022-10-17T01:07:44.269Z,97.60
2022-10-17T01:10:12.232Z,97.65
2022-10-17T01:12:49.603Z,97.55
2022-10-17T01:15:26.627Z,97.69
2022-10-17T01:18:03.274Z,97.98
2022-10-17T01:20:53.526Z,97.75
2022-10-17T01:23:31.834Z,97.72
2022-10-17T01:26:06.316Z,98.10
2022-10-17T01:29:01.282Z,97.78
2022-10-17T01:31:33.630Z,97.95
2022-10-17T01:34:04.495Z,97.68
2022-10-17T01:36:38.031Z,97.18
2022-10-17T01:39:13.557Z,97.69
2022-10-17T01:41:43.686Z,97.83
2022-10-17T01:44:14.469Z,97.67
2022-10-17T01:46:44.868Z,97.60
2022-10-17T01:49:14.427Z,97.85
2022-10-17T01:51:44.283Z,97.49
2022-10-17T01:54:14.493Z,97.43
2022-10-17T01:56:43.132Z,97.01
2022-10-17T01:59:13.712Z,97.19
2022-10-17T02:01:44.478Z,96.57
2022-10-17T02:04:12.502Z,97.96
2022-10-17T02:06:40.268Z,97.60
2022-10-17T02:09:19.005Z,97.78
2022-10-17T02:11:53.737Z,97.77
2022-10-17T02:14:26.833Z,97.98
2022-10-17T02:17:03.960Z,98.22
2022-10-17T02:19:37.098Z,97.95
2022-10-17T02:22:16.987Z,97.67
2022-10-17T02:24:49.054Z,98.00
2022-10-17T02:27:18.809Z,98.09
2022-10-17T02:29:49.961Z,97.71
2022-10-17T02:32:23.005Z,97.80
2022-10-17T02:34:52.129Z,97.48
2022-10-17T02:37:24.449Z,97.46
2022-10-17T02:39:52.309Z,97.70
2022-10-17T02:42:22.829Z,97.43
2022-10-17T02:44:50.447Z,97.86
2022-10-17T02:47:24.328Z,97.83
2022-10-17T02:49:52.877Z,98.15
2022-10-17T02:52:26.581Z,97.93
2022-10-17T02:54:57.880Z,97.65
2022-10-17T02:57:29.553Z,97.27
2022-10-17T02:59:58.685Z,97.39
2022-10-17T03:02:27.886Z,97.28
2022-10-17T03:04:56.340Z,96.91
2022-10-17T03:07:23.887Z,97.49
2022-10-17T03:09:51.384Z,97.57
2022-10-17T03:12:18.865Z,97.69
2022-10-17T03:14:46.357Z,97.55
2022-10-17T03:17:13.849Z,97.39
2022-10-17T03:19:42.691Z,97.91
2022-10-17T03:22:10.175Z,97.50
2022-10-17T03:24:37.647Z,97.89
2022-10-17T03:27:05.318Z,98.04
2022-10-17T03:29:32.865Z,97.91
2022-10-17T03:32:00.417Z,97.88
2022-10-17T03:34:28.518Z,98.18
2022-10-17T03:36:57.353Z,97.72
2022-10-17T03:39:25.106Z,98.22
2022-10-17T03:41:52.563Z,97.77
2022-10-17T03:44:20.065Z,98.48
2022-10-17T03:46:47.514Z,97.74
2022-10-17T03:49:15.005Z,98.29
2022-10-17T03:51:42.485Z,97.61
2022-10-17T03:54:11.326Z,98.00
2022-10-17T03:56:38.809Z,98.30
2022-10-17T03:59:07.748Z,98.08
2022-10-17T04:01:35.321Z,98.66
2022-10-17T04:04:02.867Z,97.84
2022-10-17T04:06:30.345Z,97.79
2022-10-17T04:08:57.814Z,97.79
2022-10-17T04:11:26.648Z,97.92
2022-10-17T04:13:55.414Z,97.06
2022-10-17T04:16:23.530Z,97.50
2022-10-17T04:18:54.161Z,97.18
2022-10-17T04:21:22.168Z,97.15
2022-10-17T04:23:49.623Z,97.06
2022-10-17T04:26:17.133Z,97.32
2022-10-17T04:28:45.928Z,97.68
2022-10-17T04:31:15.087Z,97.44
2022-10-17T04:33:43.109Z,97.65
2022-10-17T04:36:13.270Z,97.92
2022-10-17T04:38:41.096Z,97.79
2022-10-17T04:41:11.578Z,97.82
2022-10-17T04:43:40.141Z,98.32
2022-10-17T04:46:10.205Z,98.49
2022-10-17T04:48:38.061Z,98.00
2022-10-17T04:51:07.319Z,98.77
2022-10-17T04:53:35.824Z,98.72
2022-10-17T04:56:08.954Z,97.93
2022-10-17T04:58:36.864Z,98.61
2022-10-17T05:01:10.457Z,98.01
2022-10-17T05:03:38.168Z,98.87
2022-10-17T05:06:07.066Z,99.01
2022-10-17T05:08:34.837Z,98.61
2022-10-17T05:11:02.438Z,98.31
2022-10-17T05:13:29.923Z,98.85
2022-10-17T05:16:00.125Z,99.17
2022-10-17T05:18:29.202Z,98.45
2022-10-17T05:20:57.025Z,98.88
2022-10-17T05:23:24.473Z,98.68
2022-10-17T05:25:55.788Z,98.22
2022-10-17T05:28:23.368Z,98.75
2022-10-17T05:30:50.967Z,98.19
2022-10-17T05:33:18.587Z,98.05
2022-10-17T05:35:47.428Z,98.21
2022-10-17T05:38:14.860Z,98.01
2022-10-17T05:40:42.325Z,98.06
2022-10-17T05:43:09.809Z,99.04
2022-10-17T05:45:37.341Z,99.44
2022-10-17T05:48:05.058Z,99.15
2022-10-17T05:50:32.963Z,98.94
2022-10-17T05:53:01.899Z,99.10
2022-10-17T05:55:29.419Z,98.81
2022-10-17T05:57:58.429Z,98.34
2022-10-17T06:00:25.925Z,99.04
2022-10-17T06:02:53.500Z,99.17
2022-10-17T06:05:21.962Z,98.84
2022-10-17T06:07:52.359Z,98.67
2022-10-17T06:10:21.229Z,99.28
2022-10-17T06:12:48.817Z,99.23
2022-10-17T06:15:16.372Z,99.10
2022-10-17T06:17:43.828Z,98.37
2022-10-17T06:20:11.660Z,98.47
2022-10-17T06:22:39.156Z,97.97
2022-10-17T06:25:07.363Z,97.98
2022-10-17T06:27:36.190Z,97.39
2022-10-17T06:30:04.002Z,97.50
2022-10-17T06:32:32.279Z,97.98
2022-10-17T06:34:59.940Z,96.93
2022-10-17T06:37:28.403Z,97.03
2022-10-17T06:39:57.523Z,97.31
2022-10-17T06:42:25.067Z,97.07
2022-10-17T06:44:53.887Z,97.78
2022-10-17T06:47:21.413Z,96.87
2022-10-17T06:49:48.866Z,97.14
2022-10-17T06:52:17.082Z,96.76
2022-10-17T06:54:44.674Z,97.53
2022-10-17T06:57:13.178Z,97.16
2022-10-17T06:59:40.697Z,98.00
2022-10-17T07:02:10.025Z,97.46
2022-10-17T07:04:37.585Z,97.82
2022-10-17T07:07:05.315Z,97.56
2022-10-17T07:09:33.447Z,97.95
2022-10-17T07:12:00.974Z,97.04
2022-10-17T07:14:31.941Z,96.49
2022-10-17T07:16:59.616Z,96.65
2022-10-17T07:19:28.531Z,96.27
2022-10-17T07:21:56.070Z,96.75
2022-10-17T07:24:23.566Z,96.87
2022-10-17T07:26:51.048Z,97.61
2022-10-17T07:29:18.513Z,97.23
2022-10-17T07:31:51.260Z,97.33
2022-10-17T07:34:18.839Z,97.19
2022-10-17T07:36:47.740Z,97.23
2022-10-17T07:39:15.168Z,97.50
2022-10-17T07:41:42.633Z,97.95
2022-10-17T07:44:10.116Z,97.97
2022-10-17T07:46:37.580Z,98.24
2022-10-17T07:49:05.136Z,97.96
2022-10-17T07:51:32.650Z,98.43
2022-10-17T07:54:01.539Z,98.72
2022-10-17T07:56:29.597Z,98.65
2022-10-17T07:58:59.194Z,98.80
2022-10-17T08:01:29.065Z,99.28
2022-10-17T08:03:56.512Z,99.00
2022-10-17T08:06:23.960Z,99.51
2022-10-17T08:08:51.441Z,99.43
2022-10-17T08:11:21.195Z,99.49
2022-10-17T08:13:48.702Z,99.42
2022-10-17T08:16:16.160Z,99.58
2022-10-17T08:18:44.241Z,99.01
2022-10-17T08:21:13.173Z,98.46
2022-10-17T08:23:41.143Z,98.73
2022-10-17T08:26:10.645Z,98.47
2022-10-17T08:28:41.182Z,98.70
2022-10-17T08:31:10.414Z,99.18
2022-10-17T08:33:38.505Z,98.93
2022-10-17T08:36:07.121Z,99.03
2022-10-17T08:38:36.904Z,98.92
2022-10-17T08:41:08.373Z,99.39
2022-10-17T08:43:48.285Z,99.12
2022-10-17T08:48:49.254Z,98.95
2022-10-17T08:51:19.403Z,98.82
2022-10-17T08:53:50.022Z,98.53
2022-10-17T08:56:30.306Z,98.19
2022-10-17T08:59:12.432Z,97.87
2022-10-17T09:01:43.998Z,97.78
2022-10-17T09:04:41.852Z,97.40
2022-10-17T09:07:14.884Z,97.27
2022-10-17T09:09:48.135Z,96.85
2022-10-17T09:12:18.676Z,96.86
2022-10-17T09:15:05.608Z,96.69
2022-10-17T09:17:39.373Z,96.58
2022-10-17T09:20:11.782Z,96.40
2022-10-17T09:22:43.530Z,96.08
2022-10-17T09:25:13.781Z,95.42
2022-10-17T09:27:43.280Z,94.12
2022-10-17T09:30:43.738Z,93.42
2022-10-17T09:33:23.352Z,92.80
2022-10-17T09:36:03.245Z,91.99
2022-10-17T09:38:40.334Z,91.94
2022-10-17T09:41:42.776Z,91.84
2022-10-17T09:44:15.145Z,92.46
2022-10-17T09:46:49.462Z,91.42
2022-10-17T09:49:19.668Z,91.51
2022-10-17T09:51:47.308Z,91.11
2022-10-17T09:54:21.029Z,90.90
2022-10-17T09:56:59.345Z,91.05
2022-10-17T09:59:34.056Z,89.99
2022-10-17T10:02:20.292Z,90.21
2022-10-17T10:05:04.142Z,90.11
2022-10-17T10:07:34.536Z,90.14
2022-10-17T10:10:02.927Z,89.79
2022-10-17T10:12:33.526Z,88.08
2022-10-17T10:15:01.166Z,88.54
2022-10-17T10:17:35.697Z,88.90
2022-10-17T10:20:04.688Z,87.54
2022-10-17T10:22:32.500Z,85.46
2022-10-17T10:25:15.377Z,86.59
2022-10-17T10:27:43.765Z,86.33
2022-10-17T10:30:18.654Z,85.29
2022-10-17T10:32:49.106Z,85.75
2022-10-17T10:35:22.011Z,85.78
2022-10-17T10:37:51.434Z,85.68
2022-10-17T10:40:21.445Z,84.57
2022-10-17T10:42:51.295Z,84.42
2022-10-17T10:45:47.570Z,84.30
2022-10-17T10:48:19.753Z,84.67
2022-10-17T10:50:48.235Z,83.57
2022-10-17T10:53:31.790Z,82.95
2022-10-17T10:56:05.379Z,83.32
2022-10-17T10:58:43.017Z,83.50
2022-10-17T11:01:15.741Z,83.52
2022-10-17T11:03:54.641Z,82.79
2022-10-17T11:06:30.404Z,83.12
2022-10-17T11:09:10.896Z,82.49
2022-10-17T11:11:41.371Z,81.79
2022-10-17T11:14:14.385Z,81.46
2022-10-17T11:16:47.192Z,80.71
2022-10-17T11:19:19.621Z,81.34
2022-10-17T11:21:49.017Z,80.78
2022-10-17T11:24:22.820Z,81.01
2022-10-17T11:26:56.622Z,78.57
2022-10-17T11:29:27.794Z,76.60
2022-10-17T11:31:56.693Z,77.35
2022-10-17T11:34:27.504Z,78.50
2022-10-17T11:36:58.960Z,78.86
2022-10-17T11:39:31.468Z,77.49
2022-10-17T11:42:03.515Z,76.61
2022-10-17T11:44:35.442Z,76.88
2022-10-17T11:47:06.925Z,76.19
2022-10-17T11:49:41.105Z,74.96
2022-10-17T11:52:31.899Z,74.96
2022-10-17T11:55:12.320Z,75.30
2022-10-17T11:57:48.937Z,74.84
2022-10-17T12:00:25.924Z,75.05
2022-10-17T12:03:04.647Z,75.64
2022-10-17T12:05:40.174Z,74.54
2022-10-17T12:08:14.496Z,73.89
2022-10-17T12:10:49.889Z,74.09
2022-10-17T12:14:05.798Z,74.24
2022-10-17T12:16:48.665Z,75.17
2022-10-17T12:19:25.125Z,74.12
2022-10-17T12:21:58.847Z,72.52
2022-10-17T12:24:35.135Z,73.02
2022-10-17T12:27:23.607Z,72.88
2022-10-17T12:29:51.423Z,73.84
2022-10-17T12:32:18.878Z,73.67
2022-10-17T12:34:53.080Z,71.90
2022-10-17T12:37:57.380Z,72.35
2022-10-17T12:40:51.299Z,71.96
2022-10-17T12:43:46.697Z,71.53
2022-10-17T12:46:14.550Z,71.86
2022-10-17T12:49:22.146Z,70.73
2022-10-17T12:52:18.533Z,72.21
2022-10-17T12:55:00.304Z,72.31
2022-10-17T12:57:40.584Z,72.41
2022-10-17T13:00:17.355Z,71.09
2022-10-17T13:02:45.458Z,71.40
2022-10-17T13:05:17.851Z,71.78
2022-10-17T13:07:48.892Z,71.37
2022-10-17T13:10:21.636Z,70.47
2022-10-17T13:12:51.206Z,70.68
2022-10-17T13:15:20.317Z,71.08
2022-10-17T13:17:57.150Z,71.44
2022-10-17T13:20:31.273Z,71.06
2022-10-17T13:23:00.014Z,69.99
2022-10-17T13:25:28.948Z,70.55
2022-10-17T13:28:11.671Z,69.81
2022-10-17T13:30:39.546Z,68.96
2022-10-17T13:33:20.080Z,70.13
2022-10-17T13:36:00.081Z,68.37
2022-10-17T13:38:30.245Z,68.69
2022-10-17T13:41:06.087Z,68.12
2022-10-17T13:43:46.569Z,68.01
2022-10-17T13:46:36.821Z,68.61
2022-10-17T13:49:12.352Z,68.50
2022-10-17T13:51:44.140Z,69.59
2022-10-17T13:54:19.537Z,69.40
2022-10-17T13:56:47.019Z,69.61
2022-10-17T13:59:24.340Z,70.46
2022-10-17T14:01:52.291Z,70.64
2022-10-17T14:04:20.632Z,67.21
2022-10-17T14:06:49.616Z,68.47
2022-10-17T14:09:23.292Z,65.83
2022-10-17T14:11:59.356Z,66.78
2022-10-17T14:14:32.189Z,67.14
2022-10-17T14:17:02.090Z,67.00
2022-10-17T14:19:32.439Z,67.41
2022-10-17T14:22:17.204Z,67.28
2022-10-17T14:24:45.093Z,67.89
2022-10-17T14:27:30.620Z,68.70
2022-10-17T14:30:02.532Z,68.17
2022-10-17T14:35:24.343Z,67.76
2022-10-17T14:37:54.935Z,67.75
2022-10-17T14:40:24.145Z,67.32
2022-10-17T14:42:52.172Z,68.45
2022-10-17T14:45:27.183Z,69.06
2022-10-17T14:47:57.244Z,68.00
2022-10-17T14:50:26.393Z,69.01
2022-10-17T14:53:01.761Z,69.02
2022-10-17T14:55:31.676Z,68.25
2022-10-17T14:57:59.520Z,68.51
2022-10-17T15:00:28.942Z,69.08
2022-10-17T15:02:57.292Z,68.86
2022-10-17T15:05:25.013Z,69.09
2022-10-17T15:07:53.072Z,70.17
2022-10-17T15:10:26.613Z,70.92
2022-10-17T15:12:59.151Z,70.61
2022-10-17T15:15:33.767Z,71.17
2022-10-17T15:18:01.356Z,70.13
2022-10-17T15:20:30.368Z,71.16
2022-10-17T15:22:59.448Z,71.88
2022-10-17T15:25:28.257Z,72.55
2022-10-17T15:27:56.193Z,72.19
2022-10-17T15:30:25.485Z,71.69
2022-10-17T15:32:54.867Z,71.67
2022-10-17T15:35:23.132Z,71.18
2022-10-17T15:37:51.001Z,70.94
2022-10-17T15:40:21.254Z,70.98
2022-10-17T15:42:48.936Z,71.76
2022-10-17T15:45:17.947Z,72.00
2022-10-17T15:47:51.478Z,71.83
2022-10-17T15:50:21.694Z,72.68
2022-10-17T15:52:50.843Z,73.51
2022-10-17T15:55:19.135Z,73.36
2022-10-17T15:57:47.431Z,73.78
2022-10-17T16:00:17.567Z,74.65
2022-10-17T16:02:45.392Z,75.37
2022-10-17T16:05:16.143Z,75.95
2022-10-17T16:07:46.721Z,77.10
2022-10-17T16:10:14.691Z,77.43
2022-10-17T16:12:42.715Z,78.67
2022-10-17T16:15:14.868Z,78.73
2022-10-17T16:17:43.764Z,79.60
2022-10-17T16:20:12.491Z,80.08
2022-10-17T16:22:42.195Z,80.19
2022-10-17T16:25:20.360Z,80.53
2022-10-17T16:27:48.697Z,80.73
2022-10-17T16:30:16.579Z,80.89
2022-10-17T16:32:44.447Z,81.29
2022-10-17T16:35:17.596Z,81.69
2022-10-17T16:37:45.323Z,81.82
2022-10-17T16:40:14.578Z,82.29
2022-10-17T16:42:42.336Z,82.44
2022-10-17T16:45:11.270Z,82.62
2022-10-17T16:47:38.843Z,82.87
2022-10-17T16:50:07.281Z,82.97
2022-10-17T16:52:35.162Z,83.17
2022-10-17T16:55:02.866Z,83.80
2022-10-17T16:57:31.907Z,84.20
2022-10-17T16:59:59.648Z,84.53
2022-10-17T17:02:27.318Z,84.36
2022-10-17T17:04:54.997Z,84.77
2022-10-17T17:07:24.225Z,85.12
2022-10-17T17:09:53.656Z,85.16
2022-10-17T17:12:21.237Z,85.42
2022-10-17T17:14:50.312Z,85.59
2022-10-17T17:17:30.325Z,85.85
2022-10-17T17:20:07.567Z,86.03
2022-10-17T17:22:35.216Z,86.20
2022-10-17T17:25:02.801Z,86.35
2022-10-17T17:27:30.773Z,86.30
2022-10-17T17:29:59.923Z,86.92
2022-10-17T17:32:27.481Z,86.70
2022-10-17T17:34:55.211Z,86.52
2022-10-17T17:37:22.909Z,86.90
2022-10-17T17:39:50.564Z,86.45
2022-10-17T17:42:18.200Z,86.35
2022-10-17T17:44:45.873Z,86.57
2022-10-17T17:47:14.927Z,86.57
2022-10-17T17:49:42.474Z,86.41
2022-10-17T17:52:10.272Z,86.96
2022-10-17T17:54:40.790Z,87.31
2022-10-17T17:57:08.947Z,87.32
2022-10-17T17:59:40.372Z,87.04
2022-10-17T18:02:08.893Z,87.05
2022-10-17T18:04:37.988Z,87.01
2022-10-17T18:07:05.545Z,86.57
2022-10-17T18:09:33.169Z,86.96
2022-10-17T18:12:00.705Z,87.04
2022-10-17T18:14:28.459Z,87.21
2022-10-17T18:16:55.985Z,87.28
2022-10-17T18:19:23.694Z,87.48
2022-10-17T18:21:52.723Z,87.67
2022-10-17T18:24:20.562Z,87.81
2022-10-17T18:26:48.143Z,88.19
2022-10-17T18:29:15.971Z,88.75
2022-10-17T18:31:43.863Z,88.86
2022-10-17T18:34:11.585Z,88.64
2022-10-17T18:36:39.434Z,88.42
2022-10-17T18:39:08.356Z,88.84
2022-10-17T18:41:36.042Z,88.90
2022-10-17T18:44:03.893Z,88.67
2022-10-17T18:46:35.585Z,88.45
2022-10-17T18:49:03.966Z,88.72
2022-10-17T18:51:31.606Z,88.23
2022-10-17T18:53:59.563Z,88.53
2022-10-17T18:56:28.701Z,88.50
2022-10-17T18:58:56.532Z,88.94
2022-10-17T19:01:26.951Z,89.26
2022-10-17T19:03:56.972Z,89.30
2022-10-17T19:06:26.374Z,89.06
2022-10-17T19:08:54.480Z,89.05
2022-10-17T19:11:23.945Z,89.14
2022-10-17T19:13:53.622Z,89.40
2022-10-17T19:16:22.818Z,89.71
2022-10-17T19:18:51.299Z,89.21
2022-10-17T19:21:21.858Z,88.74
2022-10-17T19:23:51.728Z,89.17
2022-10-17T19:26:20.379Z,89.00
2022-10-17T19:28:48.700Z,88.63
2022-10-17T19:31:18.434Z,90.28
2022-10-17T19:33:46.618Z,90.49
2022-10-17T19:36:14.794Z,90.13
2022-10-17T19:38:42.391Z,90.08
2022-10-17T19:41:11.035Z,90.09
2022-10-17T19:43:40.531Z,89.92
2022-10-17T19:46:09.804Z,89.75
2022-10-17T19:48:39.127Z,90.24
2022-10-17T19:51:07.891Z,90.46
2022-10-17T19:53:36.104Z,90.46
2022-10-17T19:56:04.133Z,90.38
2022-10-17T19:58:32.115Z,90.68
2022-10-17T20:01:01.683Z,90.60
2022-10-17T20:03:29.808Z,90.43
2022-10-17T20:05:58.950Z,90.47
2022-10-17T20:11:03.929Z,90.86
2022-10-17T20:13:31.646Z,90.95
2022-10-17T20:15:59.856Z,90.96
2022-10-17T20:18:28.192Z,91.08
2022-10-17T20:20:56.315Z,91.59
2022-10-17T20:23:25.323Z,91.90
2022-10-17T20:26:13.190Z,91.95
2022-10-17T20:28:47.301Z,91.95
2022-10-17T20:31:15.943Z,92.34
2022-10-17T20:33:43.489Z,91.81
2022-10-17T20:36:14.046Z,91.82
2022-10-17T20:38:42.977Z,91.88
2022-10-17T20:41:11.446Z,91.70
2022-10-17T20:43:40.571Z,91.60
2022-10-17T20:46:22.787Z,91.34
2022-10-17T20:48:58.285Z,91.56
2022-10-17T20:51:39.030Z,91.67
2022-10-17T20:54:07.985Z,92.00
2022-10-17T20:56:36.400Z,92.34
2022-10-17T20:59:05.829Z,92.07
2022-10-17T21:01:35.058Z,91.90
2022-10-17T21:04:26.860Z,91.74
2022-10-17T21:06:52.127Z,91.53
2022-10-17T21:09:21.949Z,91.33
2022-10-17T21:11:51.391Z,91.55
2022-10-17T21:14:19.428Z,91.66
2022-10-17T21:16:46.999Z,91.27
2022-10-17T21:19:15.836Z,91.08
2022-10-17T21:21:45.183Z,90.88
2022-10-17T21:24:14.598Z,90.87
2022-10-17T21:26:44.699Z,90.63
2022-10-17T21:29:13.292Z,90.15
2022-10-17T21:31:42.131Z,89.89
2022-10-17T21:34:11.637Z,90.27
2022-10-17T21:36:39.632Z,90.63
2022-10-17T21:39:09.460Z,90.76
2022-10-17T21:41:37.168Z,90.68
2022-10-17T21:44:08.264Z,90.95
2022-10-17T21:46:35.762Z,90.95
2022-10-17T21:49:03.631Z,90.95
2022-10-17T21:51:31.240Z,90.46
2022-10-17T21:53:59.073Z,90.99
2022-10-17T21:56:32.412Z,90.77
2022-10-17T21:59:00.489Z,90.87
2022-10-17T22:01:31.410Z,90.94
2022-10-17T22:04:04.083Z,91.19
2022-10-17T22:06:42.017Z,91.38
2022-10-17T22:09:13.774Z,90.98
2022-10-17T22:11:41.845Z,91.41
2022-10-17T22:14:12.673Z,91.31
2022-10-17T22:16:46.269Z,91.16
2022-10-17T22:19:15.396Z,91.44
2022-10-17T22:21:42.861Z,91.53
2022-10-17T22:24:12.905Z,91.43
2022-10-17T22:26:40.713Z,91.75
2022-10-17T22:29:09.161Z,91.54
2022-10-17T22:31:37.243Z,91.64
2022-10-17T22:34:06.870Z,91.65
2022-10-17T22:36:34.713Z,91.85
2022-10-17T22:39:02.499Z,91.89
2022-10-17T22:41:30.062Z,92.00
2022-10-17T22:43:57.682Z,92.71
2022-10-17T22:46:25.465Z,92.96
2022-10-17T22:48:52.926Z,92.30
2022-10-17T22:51:21.700Z,92.42
2022-10-17T22:53:49.217Z,92.53
2022-10-17T22:56:18.946Z,92.10
2022-10-17T22:58:46.731Z,91.93
2022-10-17T23:01:16.787Z,92.09
2022-10-17T23:03:44.765Z,91.83
2022-10-17T23:06:12.380Z,91.81
2022-10-17T23:08:41.620Z,91.92
2022-10-17T23:11:09.397Z,91.77
2022-10-17T23:13:37.324Z,92.51
2022-10-17T23:16:05.227Z,92.67
2022-10-17T23:18:32.730Z,92.63
2022-10-17T23:21:00.197Z,92.60
2022-10-17T23:23:27.667Z,92.56
2022-10-17T23:25:56.471Z,92.26
2022-10-17T23:28:23.960Z,92.88
2022-10-17T23:30:51.465Z,93.33
2022-10-17T23:33:19.041Z,93.33
2022-10-17T23:35:46.509Z,93.04
2022-10-17T23:38:13.967Z,92.95
2022-10-17T23:40:41.976Z,92.87
2022-10-17T23:43:10.828Z,92.82
2022-10-17T23:45:38.264Z,93.11
2022-10-17T23:48:06.249Z,93.17
2022-10-17T23:50:33.705Z,93.03
2022-10-17T23:53:01.152Z,93.03
2022-10-17T23:55:28.874Z,93.03
2022-10-17T23:57:56.353Z,92.90
